sensor_id;sensor_type;location;lat;lon;timestamp;P1;durP1;ratioP1;P2;durP2;ratioP2
40284;SDS011;25997;50.214;19.354;2023-08-21T00:03:01;23.23;;;20.77;;
40284;SDS011;25997;50.214;19.354;2023-08-21T00:06:03;22.42;;;20.23;;
40284;SDS011;25997;50.214;19.354;2023-08-21T00:09:07;22.08;;;19.88;;
40284;SDS011;25997;50.214;19.354;2023-08-21T00:12:09;21.38;;;19.38;;
40284;SDS011;25997;50.214;19.354;2023-08-21T00:15:12;21.23;;;19.25;;
40284;SDS011;25997;50.214;19.354;2023-08-21T00:18:14;23.52;;;21.30;;
40284;SDS011;25997;50.214;19.354;2023-08-21T00:28:16;22.98;;;20.55;;
40284;SDS011;25997;50.214;19.354;2023-08-21T00:31:19;23.10;;;20.88;;
40284;SDS011;25997;50.214;19.354;2023-08-21T00:34:21;22.20;;;20.00;;
40284;SDS011;25997;50.214;19.354;2023-08-21T00:37:24;22.73;;;20.35;;
40284;SDS011;25997;50.214;19.354;2023-08-21T00:40:28;23.08;;;20.92;;
40284;SDS011;25997;50.214;19.354;2023-08-21T00:43:30;21.65;;;19.55;;
40284;SDS011;25997;50.214;19.354;2023-08-21T00:46:32;21.77;;;19.58;;
40284;SDS011;25997;50.214;19.354;2023-08-21T00:49:36;23.35;;;20.08;;
40284;SDS011;25997;50.214;19.354;2023-08-21T00:52:39;22.63;;;20.33;;
40284;SDS011;25997;50.214;19.354;2023-08-21T00:55:44;21.95;;;19.98;;
40284;SDS011;25997;50.214;19.354;2023-08-21T00:58:47;22.55;;;20.38;;
40284;SDS011;25997;50.214;19.354;2023-08-21T01:01:49;24.25;;;19.83;;
40284;SDS011;25997;50.214;19.354;2023-08-21T01:04:53;25.20;;;19.98;;
40284;SDS011;25997;50.214;19.354;2023-08-21T01:07:57;22.15;;;20.05;;
40284;SDS011;25997;50.214;19.354;2023-08-21T01:11:08;22.20;;;19.90;;
40284;SDS011;25997;50.214;19.354;2023-08-21T01:14:17;20.90;;;18.80;;
40284;SDS011;25997;50.214;19.354;2023-08-21T01:17:29;20.80;;;18.85;;
40284;SDS011;25997;50.214;19.354;2023-08-21T01:20:32;21.90;;;19.40;;
40284;SDS011;25997;50.214;19.354;2023-08-21T01:23:36;21.58;;;19.42;;
40284;SDS011;25997;50.214;19.354;2023-08-21T01:26:39;20.60;;;18.50;;
40284;SDS011;25997;50.214;19.354;2023-08-21T01:29:42;21.90;;;19.65;;
40284;SDS011;25997;50.214;19.354;2023-08-21T01:32:47;20.38;;;18.55;;
40284;SDS011;25997;50.214;19.354;2023-08-21T01:36:00;22.50;;;20.20;;
40284;SDS011;25997;50.214;19.354;2023-08-21T01:39:07;21.17;;;19.10;;
40284;SDS011;25997;50.214;19.354;2023-08-21T01:42:09;20.10;;;18.10;;
40284;SDS011;25997;50.214;19.354;2023-08-21T01:45:12;20.60;;;18.75;;
40284;SDS011;25997;50.214;19.354;2023-08-21T01:48:15;19.92;;;18.10;;
40284;SDS011;25997;50.214;19.354;2023-08-21T01:51:17;19.80;;;17.63;;
40284;SDS011;25997;50.214;19.354;2023-08-21T01:54:21;21.08;;;18.83;;
40284;SDS011;25997;50.214;19.354;2023-08-21T01:57:23;20.75;;;18.73;;
40284;SDS011;25997;50.214;19.354;2023-08-21T02:00:26;21.25;;;19.15;;
40284;SDS011;25997;50.214;19.354;2023-08-21T02:03:29;21.55;;;19.42;;
40284;SDS011;25997;50.214;19.354;2023-08-21T02:06:32;20.98;;;18.92;;
40284;SDS011;25997;50.214;19.354;2023-08-21T02:09:36;20.55;;;18.75;;
40284;SDS011;25997;50.214;19.354;2023-08-21T02:12:38;21.33;;;19.25;;
40284;SDS011;25997;50.214;19.354;2023-08-21T02:15:40;25.95;;;19.42;;
40284;SDS011;25997;50.214;19.354;2023-08-21T02:18:43;20.77;;;18.67;;
40284;SDS011;25997;50.214;19.354;2023-08-21T02:21:45;21.33;;;19.27;;
40284;SDS011;25997;50.214;19.354;2023-08-21T02:24:49;22.67;;;20.38;;
40284;SDS011;25997;50.214;19.354;2023-08-21T02:27:52;20.60;;;18.75;;
40284;SDS011;25997;50.214;19.354;2023-08-21T02:30:55;21.65;;;19.58;;
40284;SDS011;25997;50.214;19.354;2023-08-21T02:33:57;22.10;;;19.83;;
40284;SDS011;25997;50.214;19.354;2023-08-21T02:36:59;21.13;;;19.02;;
40284;SDS011;25997;50.214;19.354;2023-08-21T02:40:06;21.48;;;19.42;;
40284;SDS011;25997;50.214;19.354;2023-08-21T02:43:10;20.95;;;18.88;;
40284;SDS011;25997;50.214;19.354;2023-08-21T02:46:12;20.90;;;18.88;;
40284;SDS011;25997;50.214;19.354;2023-08-21T02:49:15;22.52;;;20.42;;
40284;SDS011;25997;50.214;19.354;2023-08-21T02:52:17;21.58;;;19.42;;
40284;SDS011;25997;50.214;19.354;2023-08-21T02:55:21;23.40;;;20.95;;
40284;SDS011;25997;50.214;19.354;2023-08-21T02:58:24;20.25;;;18.42;;
40284;SDS011;25997;50.214;19.354;2023-08-21T03:01:26;20.25;;;18.45;;
40284;SDS011;25997;50.214;19.354;2023-08-21T03:04:28;20.70;;;18.88;;
40284;SDS011;25997;50.214;19.354;2023-08-21T03:07:31;21.58;;;19.42;;
40284;SDS011;25997;50.214;19.354;2023-08-21T03:10:35;22.00;;;19.90;;
40284;SDS011;25997;50.214;19.354;2023-08-21T03:13:37;21.48;;;19.42;;
40284;SDS011;25997;50.214;19.354;2023-08-21T03:16:40;21.30;;;19.20;;
40284;SDS011;25997;50.214;19.354;2023-08-21T03:19:42;20.48;;;18.55;;
40284;SDS011;25997;50.214;19.354;2023-08-21T03:22:44;21.02;;;19.08;;
40284;SDS011;25997;50.214;19.354;2023-08-21T03:25:49;20.17;;;18.38;;
40284;SDS011;25997;50.214;19.354;2023-08-21T03:28:54;20.70;;;18.70;;
40284;SDS011;25997;50.214;19.354;2023-08-21T03:31:56;20.67;;;18.50;;
40284;SDS011;25997;50.214;19.354;2023-08-21T03:35:00;20.63;;;18.52;;
40284;SDS011;25997;50.214;19.354;2023-08-21T03:38:03;20.50;;;18.58;;
40284;SDS011;25997;50.214;19.354;2023-08-21T03:41:15;21.67;;;19.42;;
40284;SDS011;25997;50.214;19.354;2023-08-21T03:44:17;19.88;;;17.98;;
40284;SDS011;25997;50.214;19.354;2023-08-21T03:47:20;19.23;;;17.58;;
40284;SDS011;25997;50.214;19.354;2023-08-21T03:50:31;20.20;;;18.27;;
40284;SDS011;25997;50.214;19.354;2023-08-21T03:53:34;19.95;;;17.83;;
40284;SDS011;25997;50.214;19.354;2023-08-21T03:56:38;18.40;;;16.50;;
40284;SDS011;25997;50.214;19.354;2023-08-21T03:59:40;18.95;;;16.95;;
40284;SDS011;25997;50.214;19.354;2023-08-21T04:02:43;21.02;;;18.88;;
40284;SDS011;25997;50.214;19.354;2023-08-21T04:05:45;18.95;;;17.23;;
40284;SDS011;25997;50.214;19.354;2023-08-21T04:08:48;19.85;;;17.92;;
40284;SDS011;25997;50.214;19.354;2023-08-21T04:11:52;19.48;;;17.60;;
40284;SDS011;25997;50.214;19.354;2023-08-21T04:14:54;18.45;;;16.80;;
40284;SDS011;25997;50.214;19.354;2023-08-21T04:17:57;19.73;;;17.83;;
40284;SDS011;25997;50.214;19.354;2023-08-21T04:20:59;19.27;;;17.48;;
40284;SDS011;25997;50.214;19.354;2023-08-21T04:24:01;19.05;;;17.25;;
40284;SDS011;25997;50.214;19.354;2023-08-21T04:27:05;20.42;;;18.42;;
40284;SDS011;25997;50.214;19.354;2023-08-21T04:30:08;19.15;;;17.23;;
40284;SDS011;25997;50.214;19.354;2023-08-21T04:33:11;19.45;;;17.65;;
40284;SDS011;25997;50.214;19.354;2023-08-21T04:36:14;20.10;;;18.10;;
40284;SDS011;25997;50.214;19.354;2023-08-21T04:39:19;18.90;;;17.10;;
40284;SDS011;25997;50.214;19.354;2023-08-21T04:42:23;19.27;;;17.48;;
40284;SDS011;25997;50.214;19.354;2023-08-21T04:45:26;19.45;;;17.60;;
40284;SDS011;25997;50.214;19.354;2023-08-21T04:48:28;20.55;;;18.33;;
40284;SDS011;25997;50.214;19.354;2023-08-21T04:51:31;20.95;;;18.95;;
40284;SDS011;25997;50.214;19.354;2023-08-21T04:54:36;20.30;;;18.27;;
40284;SDS011;25997;50.214;19.354;2023-08-21T04:57:40;20.10;;;18.05;;
40284;SDS011;25997;50.214;19.354;2023-08-21T05:00:46;21.70;;;19.70;;
40284;SDS011;25997;50.214;19.354;2023-08-21T05:03:48;20.88;;;18.75;;
40284;SDS011;25997;50.214;19.354;2023-08-21T05:06:52;22.23;;;20.00;;
40284;SDS011;25997;50.214;19.354;2023-08-21T05:09:55;21.67;;;19.67;;
40284;SDS011;25997;50.214;19.354;2023-08-21T05:13:03;21.50;;;19.30;;
40284;SDS011;25997;50.214;19.354;2023-08-21T05:16:06;21.77;;;19.48;;
40284;SDS011;25997;50.214;19.354;2023-08-21T05:19:12;22.50;;;20.23;;
40284;SDS011;25997;50.214;19.354;2023-08-21T05:22:15;21.98;;;19.90;;
40284;SDS011;25997;50.214;19.354;2023-08-21T05:25:17;22.17;;;20.13;;
40284;SDS011;25997;50.214;19.354;2023-08-21T05:28:22;22.33;;;20.20;;
40284;SDS011;25997;50.214;19.354;2023-08-21T05:31:24;21.08;;;18.95;;
40284;SDS011;25997;50.214;19.354;2023-08-21T05:34:29;21.58;;;19.50;;
40284;SDS011;25997;50.214;19.354;2023-08-21T05:37:31;20.67;;;18.67;;
40284;SDS011;25997;50.214;19.354;2023-08-21T05:40:35;20.98;;;18.98;;
40284;SDS011;25997;50.214;19.354;2023-08-21T05:43:39;20.38;;;18.33;;
40284;SDS011;25997;50.214;19.354;2023-08-21T05:46:44;21.40;;;19.30;;
40284;SDS011;25997;50.214;19.354;2023-08-21T05:49:47;21.10;;;18.88;;
40284;SDS011;25997;50.214;19.354;2023-08-21T05:52:50;21.48;;;19.50;;
40284;SDS011;25997;50.214;19.354;2023-08-21T05:55:55;20.63;;;18.73;;
40284;SDS011;25997;50.214;19.354;2023-08-21T05:58:58;21.50;;;19.40;;
40284;SDS011;25997;50.214;19.354;2023-08-21T06:02:01;21.17;;;19.33;;
40284;SDS011;25997;50.214;19.354;2023-08-21T06:05:04;19.90;;;18.10;;
40284;SDS011;25997;50.214;19.354;2023-08-21T06:08:07;21.02;;;19.13;;
40284;SDS011;25997;50.214;19.354;2023-08-21T06:11:10;20.45;;;18.55;;
40284;SDS011;25997;50.214;19.354;2023-08-21T06:14:13;19.75;;;18.00;;
40284;SDS011;25997;50.214;19.354;2023-08-21T06:17:16;20.63;;;18.63;;
40284;SDS011;25997;50.214;19.354;2023-08-21T06:20:19;19.95;;;18.15;;
40284;SDS011;25997;50.214;19.354;2023-08-21T06:23:22;20.60;;;18.50;;
40284;SDS011;25997;50.214;19.354;2023-08-21T06:26:24;20.17;;;18.27;;
40284;SDS011;25997;50.214;19.354;2023-08-21T06:29:28;20.08;;;18.35;;
40284;SDS011;25997;50.214;19.354;2023-08-21T06:32:31;20.48;;;18.58;;
40284;SDS011;25997;50.214;19.354;2023-08-21T06:35:35;20.08;;;18.35;;
40284;SDS011;25997;50.214;19.354;2023-08-21T06:38:38;20.05;;;18.02;;
40284;SDS011;25997;50.214;19.354;2023-08-21T06:41:41;20.83;;;18.92;;
40284;SDS011;25997;50.214;19.354;2023-08-21T06:44:49;19.23;;;17.23;;
40284;SDS011;25997;50.214;19.354;2023-08-21T06:47:51;19.35;;;17.58;;
40284;SDS011;25997;50.214;19.354;2023-08-21T06:50:54;19.90;;;18.10;;
40284;SDS011;25997;50.214;19.354;2023-08-21T06:53:57;19.02;;;17.23;;
40284;SDS011;25997;50.214;19.354;2023-08-21T06:56:59;18.35;;;16.48;;
40284;SDS011;25997;50.214;19.354;2023-08-21T07:00:03;19.15;;;17.35;;
40284;SDS011;25997;50.214;19.354;2023-08-21T07:03:07;21.33;;;18.92;;
40284;SDS011;25997;50.214;19.354;2023-08-21T07:06:09;20.02;;;18.23;;
40284;SDS011;25997;50.214;19.354;2023-08-21T07:09:12;18.70;;;16.83;;
40284;SDS011;25997;50.214;19.354;2023-08-21T07:12:15;20.13;;;17.98;;
40284;SDS011;25997;50.214;19.354;2023-08-21T07:15:19;21.77;;;19.80;;
40284;SDS011;25997;50.214;19.354;2023-08-21T07:18:21;21.73;;;19.50;;
40284;SDS011;25997;50.214;19.354;2023-08-21T07:21:24;22.70;;;20.40;;
40284;SDS011;25997;50.214;19.354;2023-08-21T07:24:26;22.52;;;20.40;;
40284;SDS011;25997;50.214;19.354;2023-08-21T07:27:28;23.65;;;21.40;;
40284;SDS011;25997;50.214;19.354;2023-08-21T07:30:32;25.48;;;23.10;;
40284;SDS011;25997;50.214;19.354;2023-08-21T07:33:35;25.35;;;22.92;;
40284;SDS011;25997;50.214;19.354;2023-08-21T07:36:37;24.20;;;21.92;;
40284;SDS011;25997;50.214;19.354;2023-08-21T07:39:40;25.65;;;23.05;;
40284;SDS011;25997;50.214;19.354;2023-08-21T07:42:42;24.65;;;22.38;;
40284;SDS011;25997;50.214;19.354;2023-08-21T07:45:46;28.33;;;25.60;;
40284;SDS011;25997;50.214;19.354;2023-08-21T07:48:49;29.55;;;26.38;;
40284;SDS011;25997;50.214;19.354;2023-08-21T07:51:52;29.77;;;26.85;;
40284;SDS011;25997;50.214;19.354;2023-08-21T07:54:55;33.05;;;29.58;;
40284;SDS011;25997;50.214;19.354;2023-08-21T07:57:57;35.55;;;28.98;;
40284;SDS011;25997;50.214;19.354;2023-08-21T08:01:01;38.17;;;30.63;;
40284;SDS011;25997;50.214;19.354;2023-08-21T08:04:05;37.63;;;32.58;;
40284;SDS011;25997;50.214;19.354;2023-08-21T08:07:07;36.33;;;32.60;;
40284;SDS011;25997;50.214;19.354;2023-08-21T08:10:10;36.90;;;29.77;;
40284;SDS011;25997;50.214;19.354;2023-08-21T08:13:12;29.73;;;26.42;;
40284;SDS011;25997;50.214;19.354;2023-08-21T08:16:16;28.98;;;25.45;;
40284;SDS011;25997;50.214;19.354;2023-08-21T08:19:18;27.55;;;23.92;;
40284;SDS011;25997;50.214;19.354;2023-08-21T08:22:21;27.90;;;24.13;;
40284;SDS011;25997;50.214;19.354;2023-08-21T08:25:23;25.85;;;22.73;;
40284;SDS011;25997;50.214;19.354;2023-08-21T08:28:25;25.02;;;21.25;;
40284;SDS011;25997;50.214;19.354;2023-08-21T08:31:29;23.85;;;21.25;;
40284;SDS011;25997;50.214;19.354;2023-08-21T08:34:32;21.10;;;18.92;;
40284;SDS011;25997;50.214;19.354;2023-08-21T08:37:34;22.52;;;20.25;;
40284;SDS011;25997;50.214;19.354;2023-08-21T08:40:37;24.23;;;21.67;;
40284;SDS011;25997;50.214;19.354;2023-08-21T08:43:45;23.00;;;20.57;;
40284;SDS011;25997;50.214;19.354;2023-08-21T08:46:49;21.88;;;19.80;;
40284;SDS011;25997;50.214;19.354;2023-08-21T08:49:53;23.05;;;20.70;;
40284;SDS011;25997;50.214;19.354;2023-08-21T08:52:57;23.05;;;20.85;;
40284;SDS011;25997;50.214;19.354;2023-08-21T08:56:00;25.13;;;22.55;;
40284;SDS011;25997;50.214;19.354;2023-08-21T08:59:03;24.02;;;21.58;;
40284;SDS011;25997;50.214;19.354;2023-08-21T09:02:07;23.55;;;21.15;;
40284;SDS011;25997;50.214;19.354;2023-08-21T09:05:09;22.55;;;20.23;;
40284;SDS011;25997;50.214;19.354;2023-08-21T09:08:13;20.33;;;18.38;;
40284;SDS011;25997;50.214;19.354;2023-08-21T09:11:16;22.15;;;19.88;;
40284;SDS011;25997;50.214;19.354;2023-08-21T09:14:25;21.55;;;19.48;;
40284;SDS011;25997;50.214;19.354;2023-08-21T09:17:29;23.15;;;19.75;;
40284;SDS011;25997;50.214;19.354;2023-08-21T09:20:34;21.23;;;19.08;;
40284;SDS011;25997;50.214;19.354;2023-08-21T09:23:37;22.67;;;20.67;;
40284;SDS011;25997;50.214;19.354;2023-08-21T09:26:39;21.80;;;19.77;;
40284;SDS011;25997;50.214;19.354;2023-08-21T09:29:42;21.50;;;17.77;;
40284;SDS011;25997;50.214;19.354;2023-08-21T09:32:56;20.95;;;19.00;;
40284;SDS011;25997;50.214;19.354;2023-08-21T09:36:01;21.58;;;19.63;;
40284;SDS011;25997;50.214;19.354;2023-08-21T09:39:06;20.48;;;18.50;;
40284;SDS011;25997;50.214;19.354;2023-08-21T09:42:16;22.08;;;19.85;;
40284;SDS011;25997;50.214;19.354;2023-08-21T09:45:20;21.50;;;19.40;;
40284;SDS011;25997;50.214;19.354;2023-08-21T09:48:25;22.25;;;20.25;;
40284;SDS011;25997;50.214;19.354;2023-08-21T09:51:28;21.80;;;19.70;;
40284;SDS011;25997;50.214;19.354;2023-08-21T09:54:33;26.77;;;24.38;;
40284;SDS011;25997;50.214;19.354;2023-08-21T09:57:36;26.70;;;24.30;;
40284;SDS011;25997;50.214;19.354;2023-08-21T10:00:39;23.13;;;20.83;;
40284;SDS011;25997;50.214;19.354;2023-08-21T10:03:44;22.75;;;20.60;;
40284;SDS011;25997;50.214;19.354;2023-08-21T10:06:48;19.58;;;17.80;;
40284;SDS011;25997;50.214;19.354;2023-08-21T10:09:54;19.67;;;17.85;;
40284;SDS011;25997;50.214;19.354;2023-08-21T10:12:58;19.17;;;17.55;;
40284;SDS011;25997;50.214;19.354;2023-08-21T10:16:01;19.95;;;18.35;;
40284;SDS011;25997;50.214;19.354;2023-08-21T10:19:05;19.17;;;17.48;;
40284;SDS011;25997;50.214;19.354;2023-08-21T10:22:09;17.67;;;16.27;;
40284;SDS011;25997;50.214;19.354;2023-08-21T10:25:15;18.40;;;16.52;;
40284;SDS011;25997;50.214;19.354;2023-08-21T10:28:21;19.65;;;17.83;;
40284;SDS011;25997;50.214;19.354;2023-08-21T10:31:30;21.25;;;19.30;;
40284;SDS011;25997;50.214;19.354;2023-08-21T10:34:36;20.20;;;18.33;;
40284;SDS011;25997;50.214;19.354;2023-08-21T10:37:53;20.48;;;18.70;;
40284;SDS011;25997;50.214;19.354;2023-08-21T10:41:08;20.52;;;18.83;;
40284;SDS011;25997;50.214;19.354;2023-08-21T10:44:11;21.25;;;19.25;;
40284;SDS011;25997;50.214;19.354;2023-08-21T10:47:14;21.95;;;19.67;;
40284;SDS011;25997;50.214;19.354;2023-08-21T10:50:19;21.02;;;19.17;;
40284;SDS011;25997;50.214;19.354;2023-08-21T10:53:22;22.88;;;20.67;;
40284;SDS011;25997;50.214;19.354;2023-08-21T10:56:25;21.95;;;20.05;;
40284;SDS011;25997;50.214;19.354;2023-08-21T10:59:28;20.95;;;19.15;;
40284;SDS011;25997;50.214;19.354;2023-08-21T11:02:31;21.92;;;20.05;;
40284;SDS011;25997;50.214;19.354;2023-08-21T11:05:36;24.00;;;21.77;;
40284;SDS011;25997;50.214;19.354;2023-08-21T11:08:38;22.67;;;20.60;;
40284;SDS011;25997;50.214;19.354;2023-08-21T11:11:41;22.38;;;20.33;;
40284;SDS011;25997;50.214;19.354;2023-08-21T11:14:45;21.92;;;19.90;;
40284;SDS011;25997;50.214;19.354;2023-08-21T11:17:51;20.92;;;19.02;;
40284;SDS011;25997;50.214;19.354;2023-08-21T11:21:02;21.15;;;19.13;;
40284;SDS011;25997;50.214;19.354;2023-08-21T11:24:05;19.23;;;17.55;;
40284;SDS011;25997;50.214;19.354;2023-08-21T11:27:07;19.95;;;18.13;;
40284;SDS011;25997;50.214;19.354;2023-08-21T11:30:12;20.38;;;18.50;;
40284;SDS011;25997;50.214;19.354;2023-08-21T11:33:15;20.50;;;18.35;;
40284;SDS011;25997;50.214;19.354;2023-08-21T11:36:20;19.80;;;17.95;;
40284;SDS011;25997;50.214;19.354;2023-08-21T11:39:23;20.80;;;18.58;;
40284;SDS011;25997;50.214;19.354;2023-08-21T11:42:30;19.65;;;17.85;;
40284;SDS011;25997;50.214;19.354;2023-08-21T11:45:36;20.02;;;18.10;;
40284;SDS011;25997;50.214;19.354;2023-08-21T11:48:38;19.02;;;17.40;;
40284;SDS011;25997;50.214;19.354;2023-08-21T11:51:43;23.05;;;20.58;;
40284;SDS011;25997;50.214;19.354;2023-08-21T11:54:47;20.05;;;18.35;;
40284;SDS011;25997;50.214;19.354;2023-08-21T11:57:51;18.50;;;16.80;;
40284;SDS011;25997;50.214;19.354;2023-08-21T12:01:01;18.02;;;16.52;;
40284;SDS011;25997;50.214;19.354;2023-08-21T12:04:13;18.83;;;17.17;;
40284;SDS011;25997;50.214;19.354;2023-08-21T12:07:18;18.52;;;17.00;;
40284;SDS011;25997;50.214;19.354;2023-08-21T12:10:24;20.00;;;18.08;;
40284;SDS011;25997;50.214;19.354;2023-08-21T12:13:27;20.00;;;17.88;;
40284;SDS011;25997;50.214;19.354;2023-08-21T12:16:29;20.77;;;18.67;;
40284;SDS011;25997;50.214;19.354;2023-08-21T12:19:32;20.17;;;18.17;;
40284;SDS011;25997;50.214;19.354;2023-08-21T12:22:36;20.90;;;19.00;;
40284;SDS011;25997;50.214;19.354;2023-08-21T12:25:39;20.63;;;18.73;;
40284;SDS011;25997;50.214;19.354;2023-08-21T12:28:42;21.67;;;19.75;;
40284;SDS011;25997;50.214;19.354;2023-08-21T12:31:44;26.05;;;23.45;;
40284;SDS011;25997;50.214;19.354;2023-08-21T12:34:47;24.25;;;21.83;;
40284;SDS011;25997;50.214;19.354;2023-08-21T12:37:55;23.88;;;21.58;;
40284;SDS011;25997;50.214;19.354;2023-08-21T12:40:58;23.42;;;21.38;;
40284;SDS011;25997;50.214;19.354;2023-08-21T12:44:01;23.83;;;21.63;;
40284;SDS011;25997;50.214;19.354;2023-08-21T12:47:04;23.13;;;21.13;;
40284;SDS011;25997;50.214;19.354;2023-08-21T12:50:07;23.33;;;21.15;;
40284;SDS011;25997;50.214;19.354;2023-08-21T12:53:11;25.10;;;22.75;;
40284;SDS011;25997;50.214;19.354;2023-08-21T12:56:14;25.60;;;21.42;;
40284;SDS011;25997;50.214;19.354;2023-08-21T12:59:16;23.83;;;21.73;;
40284;SDS011;25997;50.214;19.354;2023-08-21T13:02:18;21.38;;;19.48;;
40284;SDS011;25997;50.214;19.354;2023-08-21T13:05:21;22.30;;;20.15;;
40284;SDS011;25997;50.214;19.354;2023-08-21T13:08:24;21.20;;;19.23;;
40284;SDS011;25997;50.214;19.354;2023-08-21T13:11:27;21.00;;;19.20;;
40284;SDS011;25997;50.214;19.354;2023-08-21T13:14:31;22.63;;;20.38;;
40284;SDS011;25997;50.214;19.354;2023-08-21T13:17:33;23.48;;;21.48;;
40284;SDS011;25997;50.214;19.354;2023-08-21T13:20:36;22.77;;;20.75;;
40284;SDS011;25997;50.214;19.354;2023-08-21T13:23:40;21.63;;;19.75;;
40284;SDS011;25997;50.214;19.354;2023-08-21T13:26:42;22.50;;;20.50;;
40284;SDS011;25997;50.214;19.354;2023-08-21T13:29:45;21.83;;;19.55;;
40284;SDS011;25997;50.214;19.354;2023-08-21T13:32:48;21.98;;;19.95;;
40284;SDS011;25997;50.214;19.354;2023-08-21T13:35:50;23.40;;;21.08;;
40284;SDS011;25997;50.214;19.354;2023-08-21T13:38:54;22.38;;;20.30;;
40284;SDS011;25997;50.214;19.354;2023-08-21T13:41:57;17.65;;;16.00;;
40284;SDS011;25997;50.214;19.354;2023-08-21T13:44:59;17.08;;;15.50;;
40284;SDS011;25997;50.214;19.354;2023-08-21T13:48:01;18.40;;;16.65;;
40284;SDS011;25997;50.214;19.354;2023-08-21T13:51:05;16.63;;;15.02;;
40284;SDS011;25997;50.214;19.354;2023-08-21T13:54:08;14.18;;;12.90;;
40284;SDS011;25997;50.214;19.354;2023-08-21T13:57:12;14.20;;;13.10;;
40284;SDS011;25997;50.214;19.354;2023-08-21T14:00:14;14.82;;;13.25;;
40284;SDS011;25997;50.214;19.354;2023-08-21T14:03:18;14.57;;;13.35;;
40284;SDS011;25997;50.214;19.354;2023-08-21T14:06:21;15.63;;;14.43;;
40284;SDS011;25997;50.214;19.354;2023-08-21T14:09:24;16.55;;;15.02;;
40284;SDS011;25997;50.214;19.354;2023-08-21T14:12:28;13.43;;;12.43;;
40284;SDS011;25997;50.214;19.354;2023-08-21T14:15:31;14.65;;;13.38;;
40284;SDS011;25997;50.214;19.354;2023-08-21T14:18:34;16.50;;;15.07;;
40284;SDS011;25997;50.214;19.354;2023-08-21T14:21:36;16.67;;;15.00;;
40284;SDS011;25997;50.214;19.354;2023-08-21T14:24:40;16.52;;;15.07;;
40284;SDS011;25997;50.214;19.354;2023-08-21T14:27:42;14.98;;;13.88;;
40284;SDS011;25997;50.214;19.354;2023-08-21T14:30:45;17.20;;;15.57;;
40284;SDS011;25997;50.214;19.354;2023-08-21T14:33:47;16.45;;;15.05;;
40284;SDS011;25997;50.214;19.354;2023-08-21T14:36:50;25.65;;;16.02;;
40284;SDS011;25997;50.214;19.354;2023-08-21T14:39:56;15.27;;;14.05;;
40284;SDS011;25997;50.214;19.354;2023-08-21T14:42:58;17.17;;;15.75;;
40284;SDS011;25997;50.214;19.354;2023-08-21T14:46:00;16.23;;;15.02;;
40284;SDS011;25997;50.214;19.354;2023-08-21T14:49:04;16.98;;;15.25;;
40284;SDS011;25997;50.214;19.354;2023-08-21T14:52:07;16.65;;;15.25;;
40284;SDS011;25997;50.214;19.354;2023-08-21T14:55:10;17.60;;;16.10;;
40284;SDS011;25997;50.214;19.354;2023-08-21T14:58:13;16.50;;;15.20;;
40284;SDS011;25997;50.214;19.354;2023-08-21T15:01:15;18.52;;;16.83;;
40284;SDS011;25997;50.214;19.354;2023-08-21T15:04:17;18.92;;;17.10;;
40284;SDS011;25997;50.214;19.354;2023-08-21T15:07:20;19.15;;;17.55;;
40284;SDS011;25997;50.214;19.354;2023-08-21T15:10:24;19.13;;;17.58;;
40284;SDS011;25997;50.214;19.354;2023-08-21T15:13:26;18.83;;;16.95;;
40284;SDS011;25997;50.214;19.354;2023-08-21T15:16:29;19.70;;;18.27;;
40284;SDS011;25997;50.214;19.354;2023-08-21T15:19:31;20.15;;;18.35;;
40284;SDS011;25997;50.214;19.354;2023-08-21T15:22:34;21.23;;;19.23;;
40284;SDS011;25997;50.214;19.354;2023-08-21T15:25:38;20.65;;;18.75;;
40284;SDS011;25997;50.214;19.354;2023-08-21T15:28:40;21.70;;;20.00;;
40284;SDS011;25997;50.214;19.354;2023-08-21T15:31:42;21.60;;;19.55;;
40284;SDS011;25997;50.214;19.354;2023-08-21T15:34:45;20.65;;;18.85;;
40284;SDS011;25997;50.214;19.354;2023-08-21T15:37:47;25.80;;;23.58;;
40284;SDS011;25997;50.214;19.354;2023-08-21T15:40:51;22.00;;;20.10;;
40284;SDS011;25997;50.214;19.354;2023-08-21T15:43:54;21.98;;;20.00;;
40284;SDS011;25997;50.214;19.354;2023-08-21T15:46:56;22.00;;;20.00;;
40284;SDS011;25997;50.214;19.354;2023-08-21T15:49:59;21.98;;;19.85;;
40284;SDS011;25997;50.214;19.354;2023-08-21T15:53:01;21.77;;;19.65;;
40284;SDS011;25997;50.214;19.354;2023-08-21T15:56:05;21.15;;;19.30;;
40284;SDS011;25997;50.214;19.354;2023-08-21T15:59:08;20.33;;;18.63;;
40284;SDS011;25997;50.214;19.354;2023-08-21T16:02:10;20.95;;;18.17;;
40284;SDS011;25997;50.214;19.354;2023-08-21T16:05:13;19.25;;;17.52;;
40284;SDS011;25997;50.214;19.354;2023-08-21T16:08:15;19.13;;;17.48;;
40284;SDS011;25997;50.214;19.354;2023-08-21T16:11:19;19.13;;;17.60;;
40284;SDS011;25997;50.214;19.354;2023-08-21T16:14:21;19.27;;;17.73;;
40284;SDS011;25997;50.214;19.354;2023-08-21T16:17:24;18.90;;;17.23;;
40284;SDS011;25997;50.214;19.354;2023-08-21T16:20:26;18.50;;;16.80;;
40284;SDS011;25997;50.214;19.354;2023-08-21T16:23:29;17.50;;;16.00;;
40284;SDS011;25997;50.214;19.354;2023-08-21T16:26:33;18.45;;;17.05;;
40284;SDS011;25997;50.214;19.354;2023-08-21T16:29:35;19.08;;;17.17;;
40284;SDS011;25997;50.214;19.354;2023-08-21T16:32:38;18.17;;;16.65;;
40284;SDS011;25997;50.214;19.354;2023-08-21T16:35:40;18.00;;;16.35;;
40284;SDS011;25997;50.214;19.354;2023-08-21T16:38:42;19.70;;;17.88;;
40284;SDS011;25997;50.214;19.354;2023-08-21T16:41:46;18.40;;;16.90;;
40284;SDS011;25997;50.214;19.354;2023-08-21T16:44:49;19.23;;;17.52;;
40284;SDS011;25997;50.214;19.354;2023-08-21T16:47:51;19.60;;;17.98;;
40284;SDS011;25997;50.214;19.354;2023-08-21T16:50:54;16.33;;;15.02;;
40284;SDS011;25997;50.214;19.354;2023-08-21T16:53:56;16.77;;;15.48;;
40284;SDS011;25997;50.214;19.354;2023-08-21T16:57:01;18.67;;;16.92;;
40284;SDS011;25997;50.214;19.354;2023-08-21T17:00:04;17.92;;;16.27;;
40284;SDS011;25997;50.214;19.354;2023-08-21T17:03:10;17.17;;;15.77;;
40284;SDS011;25997;50.214;19.354;2023-08-21T17:06:12;16.88;;;14.70;;
40284;SDS011;25997;50.214;19.354;2023-08-21T17:09:15;17.08;;;15.38;;
40284;SDS011;25997;50.214;19.354;2023-08-21T17:12:19;15.35;;;14.05;;
40284;SDS011;25997;50.214;19.354;2023-08-21T17:15:22;16.23;;;14.88;;
40284;SDS011;25997;50.214;19.354;2023-08-21T17:18:25;16.38;;;14.77;;
40284;SDS011;25997;50.214;19.354;2023-08-21T17:21:27;15.82;;;14.35;;
40284;SDS011;25997;50.214;19.354;2023-08-21T17:24:30;16.23;;;14.63;;
40284;SDS011;25997;50.214;19.354;2023-08-21T17:27:34;14.75;;;13.55;;
40284;SDS011;25997;50.214;19.354;2023-08-21T17:30:37;16.50;;;15.20;;
40284;SDS011;25997;50.214;19.354;2023-08-21T17:33:40;16.05;;;14.43;;
40284;SDS011;25997;50.214;19.354;2023-08-21T17:36:42;15.27;;;13.82;;
40284;SDS011;25997;50.214;19.354;2023-08-21T17:39:45;15.13;;;13.57;;
40284;SDS011;25997;50.214;19.354;2023-08-21T17:42:48;15.05;;;13.75;;
40284;SDS011;25997;50.214;19.354;2023-08-21T17:45:51;15.50;;;14.10;;